AirNav   Free Bose QuietComfort 20
 
 709 users online  

JY42 Mabel's Balloonport
Frenchtown, New Jersey, USA

GOING TO FRENCHTOWN?


FAA INFORMATION EFFECTIVE 05 DECEMBER 2019

Location

FAA Identifier: JY42
Lat/Long: 40-28-06.0000N 075-01-25.5000W
40-28.100000N 075-01.425000W
40.4683333,-75.0237500
(estimated)
Elevation: 460 ft. / 140 m (estimated)
From city: 4 miles S of FRENCHTOWN, NJ
Time zone: UTC -5 (UTC -4 during Daylight Saving Time)
Zip code: 08825

Balloonport Operations

Balloonport use: Private use. Permission required prior to landing
Activation date: 01/2004
Control tower: no
ARTCC: NEW YORK CENTER
FSS: MILLVILLE FLIGHT SERVICE STATION
Attendance: IREG
Segmented circle: no

Balloonport Communications

WX ASOS at DYL (9 nm SW): 118.875 (215-345-0392)
WX AWOS-3 at CKZ (13 nm W): 126.325 (215-257-7291)
WX ASOS at TTN (15 nm SE): 126.775 (609-538-8690)
WX AWOS-3 at UKT (16 nm W): 119.475 (215-538-7610)
WX ASOS at SMQ (19 nm NE): 120.6 (908-722-2139)

Nearby radio navigation aids

VOR radial/distance  VOR name  Freq  Var
ARDr348/13.9YARDLEY VOR/DME108.2010W
SBJr252/14.6SOLBERG VOR/DME112.9010W
BWZr216/21.8BROADWAY VOR/DME114.2011W
FJCr138/25.0ALLENTOWN VORTAC117.5010W
PTWr068/28.6POTTSTOWN VORTAC116.5009W
RBVr313/29.0ROBBINSVILLE VORTAC113.8010W
ETXr112/30.9EAST TEXAS VOR/DME110.2009W
STWr204/32.4STILLWATER VOR/DME109.6011W
GXUr337/33.8MC GUIRE VORTAC110.6012W

 
NDB name  Hdg/Dist  Freq  Var  ID
AMBLER042/23.827512WING .. -. --.
CHATHAM252/31.625413WCAT -.-. .- -

Balloonport Services

Runway Information

Runway B1

Dimensions: 300 x 300 ft. / 91 x 91 m
TREES 100 FT WEST & 35 FT BLDGS 100 FT EAST OF BALLONPORT.
Surface: turf
Traffic pattern: leftleft

Balloonport Ownership and Management from official FAA records

Ownership: Privately-owned
Owner: DON KUGLER
P.O. BOX 198
BAPTISTOWN, NJ 08803
Phone 908-303-6578
Manager: DON KUGLER
P.O. BOX 198
BAPTISTOWN, NJ 08803
Phone 908-303-6578

Balloonport Operational Statistics

Aircraft operations: 25/year
100% local general aviation

Additional Remarks

FOR CD CTC NEW YORK APCH AT 800-645-3206.

Instrument Procedures

There are no published instrument procedures at JY42.

Some nearby airports with instrument procedures:

N40 - Sky Manor Airport (6 nm N)
N85 - Alexandria Airport (7 nm N)
KDYL - Doylestown Airport (9 nm SW)
KCKZ - Pennridge Airport (13 nm W)
N51 - Solberg-Hunterdon Airport (15 nm NE)
KTTN - Trenton Mercer Airport (15 nm SE)
KUKT - Quakertown Airport (16 nm W)
39N - Princeton Airport (17 nm E)
KSMQ - Somerset Airport (19 nm NE)
N43 - Braden Airpark (19 nm NW)
 
Loc | Ops | Rwys | IFR | FBO | Links
Com | Nav | Svcs | Stats | Notes
Area around JY42 (Mabel's Balloonport)
 
Road maps at: MapQuest Bing Google
 
Aerial photo
No photo
 
Sectional chart

 
Airport distance calculator
Flying to Mabel's Balloonport? Find the distance to fly.

From to JY42

Sunrise and sunset
Times for 14-Dec-2019
 Local
(UTC-5)
 Zulu
(UTC)
Morning civil twilight06:4611:46
Sunrise07:1712:17
Sunset16:3321:33
Evening civil twilight17:0422:04

Current date and time
Zulu (UTC)  14-Dec-2019 14:28:38
Local (UTC-5)  14-Dec-2019 09:28:38
 
METAR
KDYL 
9nm SW 
141422Z AUTO 03005KT 3/4SM BR VV002 09/08 A2943 RMK AO2 T00940078
KCKZ 
13nm W 
141415Z AUTO 03003KT 1/4SM FG OVC003 08/08 A2945 RMK AO2
KTTN 
15nm SE 
ASOS 133.70 609-538-8690
141413Z 02003KT 1/2SM FG OVC002 10/09 A2943 RMK AO2 T01000094
KUKT 
16nm W 
141420Z AUTO 03004KT 4SM BR OVC003 08/08 A2944 RMK A01
KSMQ 
19nm NE 
ASOS 120.60 908-722-2139
141353Z AUTO 31004KT 3SM BR OVC005 09/09 A2944 RMK AO2 SLP970 T00940094
TAF
KTTN 
15nm SE 
141134Z 1412/1512 01008KT 2SM -RA BR OVC003 FM141700 12005KT 4SM -SHRA BR OVC006 FM142100 25010G18KT 5SM BR OVC015 FM150200 27014G28KT P6SM BKN050
NOTAMs
Click for the latest NOTAMs
NOTAMs are issued by the DoD/FAA and will open in a separate window not controlled by AirNav.

 

 
 

Would you like to see your business listed on this page?

 If your business provides an interesting product or service to pilots, flight crews, aircraft, or users of the Mabel's Balloonport, you should consider listing it here.  To start the listing process, click on the button below
 
Add a business
 

Other Pages about Mabel's Balloonport

Update a link
 
Copyright © AirNav, LLC. All rights reserved. Privacy Policy  Contact